Itirapina, Brazil
Current Conditions -  °F | °C
As of 8:00 AM on Saturday 25 Oct 2014 (Local Time) from SBYS Reporting Station
Light Rain Light Rain  
Wind Chill: 66°   Ceiling: 10000
Heat Index: 66°   Visibility: 4mi
Dew Point: 64°   Wind: 8mph
Humidity: 94%   Direction: 340°NNW
Pressure: 30"   Gusts: NA
Location:  22.25°S, 47.82°W
Report Text: SBYS 251000Z 34007KT 6000 -RA SCT035 BKN100 19/18 Q1016
Loading
Personal Weather Stations






























Interactive Weather Map
Tropical Storm Tracking
New forecast layout! Learn more

10-Day Weather Forecast

Advertisements
Track Severe Weather on mobile